createdAt,value
2017-11-06T00:00:18.478Z,94867.41
2017-11-06T00:02:46.871Z,94865.81
2017-11-06T00:05:15.227Z,94874.69
2017-11-06T00:07:43.596Z,94876.02
2017-11-06T00:10:11.978Z,94887.55
2017-11-06T00:12:40.350Z,94888.79
2017-11-06T00:15:08.734Z,94877.06
2017-11-06T00:17:37.128Z,94873.13
2017-11-06T00:20:05.512Z,94872.97
2017-11-06T00:22:33.872Z,94874.41
2017-11-06T00:25:02.245Z,94876.64
2017-11-06T00:27:30.608Z,94879.20
2017-11-06T00:29:58.970Z,94872.88
2017-11-06T00:32:27.327Z,94884.39
2017-11-06T00:34:55.713Z,94894.47
2017-11-06T00:37:24.090Z,94890.73
2017-11-06T00:39:52.450Z,94898.67
2017-11-06T00:42:20.826Z,94899.95
2017-11-06T00:44:49.189Z,94900.33
2017-11-06T00:47:17.547Z,94897.39
2017-11-06T00:49:45.913Z,94904.63
2017-11-06T00:52:14.284Z,94902.77
2017-11-06T00:54:42.658Z,94905.84
2017-11-06T00:57:11.012Z,94903.66
2017-11-06T00:59:39.402Z,94906.53
2017-11-06T01:02:07.779Z,94908.97
2017-11-06T01:04:36.140Z,94908.66
2017-11-06T01:07:04.499Z,94910.39
2017-11-06T01:09:32.855Z,94904.86
2017-11-06T01:12:01.263Z,94908.72
2017-11-06T01:14:29.617Z,94914.52
2017-11-06T01:16:57.976Z,94913.46
2017-11-06T01:19:26.332Z,94910.58
2017-11-06T01:21:54.684Z,94918.27
2017-11-06T01:24:23.030Z,94919.59
2017-11-06T01:26:51.386Z,94921.10
2017-11-06T01:29:19.760Z,94924.66
2017-11-06T01:31:48.123Z,94928.27
2017-11-06T01:34:16.485Z,94935.84
2017-11-06T01:36:44.863Z,94938.06
2017-11-06T01:39:13.250Z,94939.06
2017-11-06T01:41:41.615Z,94934.50
2017-11-06T01:44:09.992Z,94930.72
2017-11-06T01:46:38.355Z,94932.39
2017-11-06T01:49:06.735Z,94930.81
2017-11-06T01:51:35.107Z,94934.89
2017-11-06T01:54:03.487Z,94939.79
2017-11-06T01:56:31.870Z,94937.02
2017-11-06T01:59:00.223Z,94935.30
2017-11-06T02:01:28.608Z,94941.30
2017-11-06T02:03:56.992Z,94945.86
2017-11-06T02:06:25.395Z,94947.69
2017-11-06T02:08:53.739Z,94948.65
2017-11-06T02:11:22.088Z,94953.86
2017-11-06T02:13:50.455Z,94950.42
2017-11-06T02:16:18.828Z,94959.33
2017-11-06T02:18:47.191Z,94959.39
2017-11-06T02:21:15.561Z,94958.39
2017-11-06T02:23:43.911Z,94959.27
2017-11-06T02:26:12.305Z,94957.33
2017-11-06T02:28:40.705Z,94963.27
2017-11-06T02:31:09.065Z,94969.11
2017-11-06T02:33:37.437Z,94966.44
2017-11-06T02:36:05.805Z,94971.39
2017-11-06T02:38:34.171Z,94972.61
2017-11-06T02:41:02.558Z,94978.98
2017-11-06T02:43:30.925Z,94982.20
2017-11-06T02:45:59.266Z,94987.77
2017-11-06T02:48:27.632Z,94993.37
2017-11-06T02:50:56.025Z,94989.50
2017-11-06T02:53:24.387Z,94994.72
2017-11-06T02:55:52.779Z,95001.63
2017-11-06T02:58:21.140Z,95011.15
2017-11-06T03:00:49.490Z,95009.18
2017-11-06T03:03:17.864Z,95017.48
2017-11-06T03:05:46.240Z,95015.14
2017-11-06T03:08:14.578Z,95024.41
2017-11-06T03:10:42.944Z,95027.12
2017-11-06T03:13:11.322Z,95032.52
2017-11-06T03:15:39.705Z,95034.08
2017-11-06T03:18:08.097Z,95039.98
2017-11-06T03:20:36.441Z,95038.42
2017-11-06T03:23:04.830Z,95044.47
2017-11-06T03:25:33.208Z,95049.16
2017-11-06T03:28:01.624Z,95048.38
2017-11-06T03:30:29.976Z,95051.61
2017-11-06T03:32:58.355Z,95063.06
2017-11-06T03:35:26.721Z,95058.41
2017-11-06T03:37:55.088Z,95062.46
2017-11-06T03:40:23.480Z,95056.56
2017-11-06T03:42:51.834Z,95060.79
2017-11-06T03:45:20.197Z,95074.48
2017-11-06T03:47:48.557Z,95073.59
2017-11-06T03:50:16.923Z,95075.63
2017-11-06T03:52:45.311Z,95077.89
2017-11-06T03:55:13.671Z,95074.77
2017-11-06T03:57:42.084Z,95081.16
2017-11-06T04:00:10.483Z,95082.63
2017-11-06T04:02:38.875Z,95090.91
2017-11-06T04:05:07.250Z,95089.81
2017-11-06T04:07:35.606Z,95091.41
2017-11-06T04:10:04.026Z,95087.64
2017-11-06T04:12:32.410Z,95093.27
2017-11-06T04:15:00.768Z,95094.08
2017-11-06T04:17:29.166Z,95095.64
2017-11-06T04:19:57.549Z,95101.26
2017-11-06T04:22:25.924Z,95102.05
2017-11-06T04:24:54.286Z,95103.61
2017-11-06T04:27:22.679Z,95103.01
2017-11-06T04:29:51.071Z,95102.44
2017-11-06T04:32:19.473Z,95103.89
2017-11-06T04:34:47.894Z,95105.28
2017-11-06T04:37:16.239Z,95108.37
2017-11-06T04:39:44.635Z,95108.73
2017-11-06T04:42:13.973Z,95114.56
2017-11-06T04:44:42.382Z,95115.03
2017-11-06T04:47:10.740Z,95123.02
2017-11-06T04:49:39.136Z,95122.03
2017-11-06T04:52:07.505Z,95122.81
2017-11-06T04:54:35.860Z,95123.31
2017-11-06T04:57:04.259Z,95116.02
2017-11-06T04:59:32.616Z,95120.36
2017-11-06T05:02:00.993Z,95120.08
2017-11-06T05:04:29.388Z,95127.27
2017-11-06T05:06:57.756Z,95122.23
2017-11-06T05:09:26.124Z,95125.59
2017-11-06T05:11:54.542Z,95126.66
2017-11-06T05:14:22.965Z,95130.70
2017-11-06T05:16:51.329Z,95125.29
2017-11-06T05:19:19.722Z,95132.80
2017-11-06T05:21:48.079Z,95135.92
2017-11-06T05:24:16.460Z,95138.59
2017-11-06T05:26:44.817Z,95142.62
2017-11-06T05:29:13.179Z,95153.36
2017-11-06T05:31:41.576Z,95153.36
2017-11-06T05:34:09.984Z,95162.13
2017-11-06T05:36:38.348Z,95166.84
2017-11-06T05:39:06.743Z,95167.63
2017-11-06T05:41:35.116Z,95165.36
2017-11-06T05:44:03.486Z,95168.82
2017-11-06T05:46:31.860Z,95180.64
2017-11-06T05:49:00.860Z,95186.34
2017-11-06T05:51:29.235Z,95186.17
2017-11-06T05:53:57.686Z,95195.52
2017-11-06T05:56:26.099Z,95193.73
2017-11-06T05:58:54.457Z,95200.94
2017-11-06T06:01:22.845Z,95199.66
2017-11-06T06:03:51.228Z,95212.25
2017-11-06T06:06:19.609Z,95205.17
2017-11-06T06:08:47.986Z,95220.50
2017-11-06T06:11:16.382Z,95223.58
2017-11-06T06:13:44.769Z,95217.77
2017-11-06T06:16:13.134Z,95226.63
2017-11-06T06:18:41.537Z,95235.97
2017-11-06T06:21:09.924Z,95229.08
2017-11-06T06:23:38.356Z,95232.05
2017-11-06T06:26:06.727Z,95229.48
2017-11-06T06:28:35.106Z,95236.37
2017-11-06T06:31:03.498Z,95242.78
2017-11-06T06:33:31.866Z,95240.72
2017-11-06T06:36:00.267Z,95243.27
2017-11-06T06:38:28.688Z,95252.17
2017-11-06T06:40:57.082Z,95258.64
2017-11-06T06:46:00.125Z,95260.61
2017-11-06T06:48:28.497Z,95265.95
2017-11-06T06:50:56.851Z,95264.75
2017-11-06T06:53:25.251Z,95272.08
2017-11-06T06:55:53.640Z,95271.84
2017-11-06T06:58:22.003Z,95276.98
2017-11-06T07:00:50.388Z,95271.16
2017-11-06T07:03:18.769Z,95271.17
2017-11-06T07:05:47.139Z,95272.95
2017-11-06T07:08:15.524Z,95279.81
2017-11-06T07:10:43.884Z,95282.91
2017-11-06T07:13:12.278Z,95286.95
2017-11-06T07:15:40.667Z,95289.20
2017-11-06T07:18:09.015Z,95279.07
2017-11-06T07:20:37.428Z,95287.44
2017-11-06T07:23:05.795Z,95295.83
2017-11-06T07:25:34.177Z,95302.52
2017-11-06T07:28:02.561Z,95308.84
2017-11-06T07:30:30.939Z,95310.59
2017-11-06T07:32:59.308Z,95307.95
2017-11-06T07:35:27.718Z,95301.44
2017-11-06T07:37:56.080Z,95311.39
2017-11-06T07:40:24.445Z,95316.02
2017-11-06T07:42:52.812Z,95325.88
2017-11-06T07:45:21.176Z,95332.59
2017-11-06T07:47:49.589Z,95329.13
2017-11-06T07:50:18.011Z,95332.39
2017-11-06T07:52:46.379Z,95326.09
2017-11-06T07:55:14.738Z,95329.25
2017-11-06T07:57:43.093Z,95331.22
2017-11-06T08:00:11.497Z,95335.34
2017-11-06T08:02:39.854Z,95342.72
2017-11-06T08:05:08.299Z,95353.16
2017-11-06T08:07:36.692Z,95349.03
2017-11-06T08:10:05.133Z,95350.02
2017-11-06T08:12:33.541Z,95344.71
2017-11-06T08:15:01.957Z,95352.11
2017-11-06T08:17:30.348Z,95349.47
2017-11-06T08:19:58.709Z,95352.49
2017-11-06T08:22:27.081Z,95353.39
2017-11-06T08:24:55.459Z,95353.08
2017-11-06T08:27:23.812Z,95359.11
2017-11-06T08:29:52.242Z,95359.91
2017-11-06T08:32:20.628Z,95369.75
2017-11-06T08:34:49.016Z,95367.02
2017-11-06T08:37:17.391Z,95372.14
2017-11-06T08:39:45.782Z,95371.55
2017-11-06T08:42:14.327Z,95371.62
2017-11-06T08:44:42.692Z,95370.14
2017-11-06T08:47:11.063Z,95375.47
2017-11-06T08:49:39.438Z,95384.95
2017-11-06T08:52:07.815Z,95388.61
2017-11-06T08:54:36.199Z,95396.89
2017-11-06T08:57:04.568Z,95390.17
2017-11-06T08:59:32.984Z,95397.55
2017-11-06T09:02:01.450Z,95401.22
2017-11-06T09:04:29.948Z,95412.66
2017-11-06T09:06:58.309Z,95412.00
2017-11-06T09:09:26.672Z,95410.48
2017-11-06T09:11:55.083Z,95411.09
2017-11-06T09:14:23.465Z,95414.84
2017-11-06T09:16:51.853Z,95418.87
2017-11-06T09:19:20.215Z,95415.02
2017-11-06T09:21:48.570Z,95418.92
2017-11-06T09:24:16.960Z,95424.58
2017-11-06T09:26:45.333Z,95433.75
2017-11-06T09:29:13.734Z,95435.65
2017-11-06T09:31:42.179Z,95438.89
2017-11-06T09:34:10.529Z,95444.92
2017-11-06T09:36:38.876Z,95449.86
2017-11-06T09:39:07.248Z,95452.75
2017-11-06T09:41:35.724Z,95459.41
2017-11-06T09:44:04.150Z,95460.19
2017-11-06T09:46:32.499Z,95454.48
2017-11-06T09:49:00.852Z,95467.16
2017-11-06T09:51:29.315Z,95461.08
2017-11-06T09:53:57.728Z,95466.55
2017-11-06T09:56:26.168Z,95467.13
2017-11-06T09:58:54.502Z,95465.16
2017-11-06T10:01:23.018Z,95467.45
2017-11-06T10:03:51.366Z,95469.97
2017-11-06T10:06:19.717Z,95469.64
2017-11-06T10:08:48.063Z,95476.38
2017-11-06T10:11:16.411Z,95478.29
2017-11-06T10:13:44.889Z,95481.45
2017-11-06T10:16:13.257Z,95479.25
2017-11-06T10:18:41.633Z,95475.77
2017-11-06T10:21:09.986Z,95479.98
2017-11-06T10:23:38.390Z,95483.56
2017-11-06T10:26:06.752Z,95484.82
2017-11-06T10:28:35.143Z,95487.81
2017-11-06T10:31:03.494Z,95486.53
2017-11-06T10:33:31.869Z,95485.69
2017-11-06T10:36:00.245Z,95489.55
2017-11-06T10:38:28.601Z,95481.92
2017-11-06T10:40:56.973Z,95480.03
2017-11-06T10:43:25.430Z,95488.20
2017-11-06T10:45:53.791Z,95490.22
2017-11-06T10:48:22.162Z,95484.83
2017-11-06T10:50:50.667Z,95480.31
2017-11-06T10:53:19.072Z,95482.84
2017-11-06T10:55:47.447Z,95484.44
2017-11-06T10:58:15.988Z,95488.12
2017-11-06T11:00:44.319Z,95488.83
2017-11-06T11:03:12.709Z,95484.14
2017-11-06T11:05:41.079Z,95482.83
2017-11-06T11:08:09.427Z,95482.73
2017-11-06T11:10:37.797Z,95489.67
2017-11-06T11:13:06.155Z,95489.78
2017-11-06T11:15:34.547Z,95491.02
2017-11-06T11:18:02.900Z,95492.39
2017-11-06T11:20:31.313Z,95493.31
2017-11-06T11:22:59.704Z,95492.48
2017-11-06T11:25:28.063Z,95496.48
2017-11-06T11:27:56.430Z,95499.59
2017-11-06T11:30:24.770Z,95499.81
2017-11-06T11:32:53.143Z,95504.28
2017-11-06T11:35:21.496Z,95504.33
2017-11-06T11:37:49.872Z,95501.01
2017-11-06T11:40:18.225Z,95503.48
2017-11-06T11:42:46.612Z,95500.61
2017-11-06T11:45:15.043Z,95504.38
2017-11-06T11:47:43.422Z,95509.42
2017-11-06T11:50:11.764Z,95508.23
2017-11-06T11:52:40.128Z,95517.65
2017-11-06T11:55:08.492Z,95518.72
2017-11-06T11:57:36.872Z,95519.91
2017-11-06T12:00:05.248Z,95522.63
2017-11-06T12:02:33.611Z,95532.17
2017-11-06T12:05:01.961Z,95531.14
2017-11-06T12:07:30.345Z,95535.23
2017-11-06T12:09:58.703Z,95533.40
2017-11-06T12:12:27.075Z,95542.66
2017-11-06T12:14:55.460Z,95543.05
2017-11-06T12:17:23.806Z,95536.05
2017-11-06T12:19:52.224Z,95540.17
2017-11-06T12:22:20.577Z,95547.70
2017-11-06T12:24:48.929Z,95538.88
2017-11-06T12:27:17.273Z,95546.66
2017-11-06T12:29:45.656Z,95552.27
2017-11-06T12:32:14.011Z,95548.58
2017-11-06T12:34:42.355Z,95543.85
2017-11-06T12:37:10.715Z,95544.05
2017-11-06T12:39:39.217Z,95549.89
2017-11-06T12:42:07.576Z,95549.36
2017-11-06T12:44:35.916Z,95548.40
2017-11-06T12:47:04.309Z,95548.40
2017-11-06T12:49:32.648Z,95547.02
2017-11-06T12:52:16.608Z,95552.09
2017-11-06T12:54:47.702Z,95542.06
2017-11-06T12:57:16.070Z,95543.13
2017-11-06T12:59:49.361Z,95549.00
2017-11-06T13:02:20.604Z,95548.55
2017-11-06T13:04:49.137Z,95550.27
2017-11-06T13:07:17.560Z,95555.56
2017-11-06T13:09:47.614Z,95565.19
2017-11-06T13:12:19.631Z,95569.90
2017-11-06T13:19:27.274Z,95578.06
2017-11-06T13:21:55.635Z,95579.39
2017-11-06T13:24:24.011Z,95582.33
2017-11-06T13:26:55.420Z,95581.94
2017-11-06T13:29:26.565Z,95588.25
2017-11-06T13:34:46.082Z,95590.96
2017-11-06T13:37:18.251Z,95595.66
2017-11-06T13:39:50.181Z,95601.95
2017-11-06T13:42:26.921Z,95597.72
2017-11-06T13:45:04.735Z,95610.98
2017-11-06T13:47:34.267Z,95610.91
2017-11-06T14:00:53.372Z,95613.11
2017-11-06T14:03:21.889Z,95607.77
2017-11-06T14:05:53.298Z,95607.08
2017-11-06T14:11:01.718Z,95601.16
2017-11-06T14:13:32.338Z,95610.72
2017-11-06T14:16:01.406Z,95608.05
2017-11-06T14:18:29.964Z,95614.48
2017-11-06T14:21:00.225Z,95620.61
2017-11-06T14:23:36.300Z,95620.11
2017-11-06T14:26:07.679Z,95626.45
2017-11-06T14:28:43.522Z,95631.38
2017-11-06T14:34:14.262Z,95637.22
2017-11-06T14:36:56.090Z,95643.33
2017-11-06T14:42:21.662Z,95640.38
2017-11-06T14:44:57.211Z,95644.63
2017-11-06T14:47:25.645Z,95646.29
2017-11-06T14:49:54.040Z,95648.92
2017-11-06T14:52:22.399Z,95648.50
2017-11-06T14:54:50.754Z,95654.61
2017-11-06T14:57:19.315Z,95642.34
2017-11-06T14:59:47.803Z,95644.20
2017-11-06T15:02:17.223Z,95642.75
2017-11-06T15:04:45.603Z,95652.55
2017-11-06T15:07:13.975Z,95649.84
2017-11-06T15:09:42.398Z,95653.31
2017-11-06T15:12:10.853Z,95654.20
2017-11-06T15:14:40.208Z,95660.36
2017-11-06T15:17:08.569Z,95658.43
2017-11-06T15:19:36.917Z,95655.67
2017-11-06T15:22:05.256Z,95657.83
2017-11-06T15:24:33.631Z,95664.05
2017-11-06T15:27:01.959Z,95663.58
2017-11-06T15:29:30.298Z,95662.67
2017-11-06T15:31:58.719Z,95672.46
2017-11-06T15:34:27.247Z,95666.10
2017-11-06T15:36:55.594Z,95670.69
2017-11-06T15:39:23.955Z,95667.52
2017-11-06T15:41:52.323Z,95668.23
2017-11-06T15:44:20.671Z,95666.66
2017-11-06T15:46:49.031Z,95666.66
2017-11-06T15:49:17.390Z,95660.89
2017-11-06T15:51:45.913Z,95661.78
2017-11-06T15:54:14.270Z,95672.08
2017-11-06T15:56:42.631Z,95667.89
2017-11-06T15:59:11.016Z,95668.59
2017-11-06T16:01:39.455Z,95662.08
2017-11-06T16:04:07.792Z,95676.32
2017-11-06T16:06:36.137Z,95673.17
2017-11-06T16:09:05.100Z,95679.27
2017-11-06T16:11:33.526Z,95678.70
2017-11-06T16:14:01.884Z,95682.91
2017-11-06T16:16:30.283Z,95680.95
2017-11-06T16:18:58.679Z,95683.72
2017-11-06T16:21:27.025Z,95680.95
2017-11-06T16:23:55.413Z,95684.05
2017-11-06T16:26:23.788Z,95688.28
2017-11-06T16:28:52.158Z,95689.20
2017-11-06T16:31:20.507Z,95690.56
2017-11-06T16:36:23.287Z,95688.89
2017-11-06T16:38:51.679Z,95690.47
2017-11-06T16:41:20.067Z,95699.64
2017-11-06T16:43:48.463Z,95702.07
2017-11-06T16:46:16.815Z,95704.96
2017-11-06T16:48:45.169Z,95715.02
2017-11-06T16:51:13.527Z,95716.10
2017-11-06T16:53:41.923Z,95714.62
2017-11-06T16:56:10.320Z,95721.65
2017-11-06T16:58:38.707Z,95725.89
2017-11-06T17:01:07.060Z,95720.94
2017-11-06T17:03:35.430Z,95726.41
2017-11-06T17:06:03.800Z,95721.61
2017-11-06T17:08:32.164Z,95712.63
2017-11-06T17:11:02.192Z,95715.66
2017-11-06T17:13:46.042Z,95723.58
2017-11-06T17:16:20.455Z,95730.30
2017-11-06T17:18:54.342Z,95741.13
2017-11-06T17:21:22.701Z,95734.34
2017-11-06T17:23:51.100Z,95745.06
2017-11-06T17:26:19.591Z,95741.77
2017-11-06T17:28:47.945Z,95742.19
2017-11-06T17:31:16.567Z,95740.54
2017-11-06T17:33:44.948Z,95737.86
2017-11-06T17:36:13.363Z,95744.21
2017-11-06T17:38:41.734Z,95745.64
2017-11-06T17:41:10.097Z,95741.07
2017-11-06T17:43:38.466Z,95740.70
2017-11-06T17:46:06.855Z,95748.01
2017-11-06T17:48:35.427Z,95746.21
2017-11-06T17:51:03.810Z,95750.59
2017-11-06T17:53:33.155Z,95747.44
2017-11-06T17:56:01.532Z,95756.19
2017-11-06T17:58:29.918Z,95746.20
2017-11-06T18:00:58.296Z,95748.36
2017-11-06T18:03:26.683Z,95743.56
2017-11-06T18:05:56.018Z,95733.98
2017-11-06T18:08:24.618Z,95745.38
2017-11-06T18:10:53.005Z,95742.97
2017-11-06T18:13:21.395Z,95742.48
2017-11-06T18:15:49.806Z,95743.79
2017-11-06T18:18:18.245Z,95746.76
2017-11-06T18:20:46.688Z,95751.52
2017-11-06T18:23:15.064Z,95748.21
2017-11-06T18:25:43.419Z,95749.48
2017-11-06T18:28:11.774Z,95752.24
2017-11-06T18:30:40.182Z,95765.09
2017-11-06T18:33:10.847Z,95767.65
2017-11-06T18:35:40.522Z,95764.39
2017-11-06T18:38:08.873Z,95770.35
2017-11-06T18:40:37.239Z,95774.83
2017-11-06T18:43:05.604Z,95773.09
2017-11-06T18:45:33.981Z,95777.41
2017-11-06T18:48:02.380Z,95775.78
2017-11-06T18:50:30.758Z,95783.65
2017-11-06T18:52:59.131Z,95789.25
2017-11-06T18:55:27.498Z,95788.16
2017-11-06T18:57:55.855Z,95798.98
2017-11-06T19:00:24.256Z,95801.17
2017-11-06T19:02:52.685Z,95798.78
2017-11-06T19:05:21.049Z,95805.54
2017-11-06T19:07:49.445Z,95814.73
2017-11-06T19:10:17.809Z,95813.58
2017-11-06T19:12:46.197Z,95817.73
2017-11-06T19:15:14.578Z,95822.96
2017-11-06T19:17:42.973Z,95821.78
2017-11-06T19:20:11.336Z,95822.50
2017-11-06T19:22:39.730Z,95811.25
2017-11-06T19:25:08.111Z,95811.37
2017-11-06T19:27:36.479Z,95810.47
2017-11-06T19:30:05.001Z,95812.95
2017-11-06T19:32:33.417Z,95820.56
2017-11-06T19:35:03.620Z,95818.55
2017-11-06T19:37:31.982Z,95822.69
2017-11-06T19:40:00.388Z,95814.64
2017-11-06T19:42:28.783Z,95825.30
2017-11-06T19:44:57.142Z,95821.96
2017-11-06T19:47:25.586Z,95810.70
2017-11-06T19:49:53.944Z,95807.88
2017-11-06T19:52:22.308Z,95815.13
2017-11-06T19:54:50.712Z,95808.51
2017-11-06T19:57:19.223Z,95810.59
2017-11-06T20:06:47.779Z,95820.91
2017-11-06T20:09:16.140Z,95815.14
2017-11-06T20:11:44.526Z,95820.80
2017-11-06T20:14:12.897Z,95826.44
2017-11-06T20:16:41.243Z,95825.06
2017-11-06T20:19:09.593Z,95827.12
2017-11-06T20:21:37.947Z,95837.21
2017-11-06T20:24:06.314Z,95832.53
2017-11-06T20:26:34.761Z,95836.12
2017-11-06T20:29:03.999Z,95826.34
2017-11-06T20:31:32.490Z,95830.63
2017-11-06T20:34:00.835Z,95831.30
2017-11-06T20:36:29.198Z,95839.98
2017-11-06T20:38:57.555Z,95836.28
2017-11-06T20:41:25.921Z,95838.93
2017-11-06T20:43:54.316Z,95843.55
2017-11-06T20:46:22.685Z,95839.39
2017-11-06T20:48:51.026Z,95835.53
2017-11-06T20:51:19.407Z,95843.21
2017-11-06T20:53:48.054Z,95842.19
2017-11-06T20:56:17.079Z,95846.67
2017-11-06T20:58:45.424Z,95845.67
2017-11-06T21:01:13.771Z,95848.68
2017-11-06T21:03:42.132Z,95851.19
2017-11-06T21:06:10.479Z,95849.12
2017-11-06T21:08:38.843Z,95852.81
2017-11-06T21:11:07.190Z,95853.84
2017-11-06T21:13:35.599Z,95846.95
2017-11-06T21:16:04.055Z,95846.72
2017-11-06T21:18:32.406Z,95854.63
2017-11-06T21:21:00.772Z,95855.13
2017-11-06T21:23:29.440Z,95849.20
2017-11-06T21:25:57.841Z,95848.55
2017-11-06T21:28:26.218Z,95854.54
2017-11-06T21:30:54.569Z,95850.16
2017-11-06T21:33:23.003Z,95848.57
2017-11-06T21:35:51.395Z,95844.02
2017-11-06T21:38:19.819Z,95843.68
2017-11-06T21:40:48.166Z,95849.23
2017-11-06T21:43:16.519Z,95844.75
2017-11-06T21:45:44.873Z,95847.72
2017-11-06T21:48:13.225Z,95843.65
2017-11-06T21:53:16.237Z,95844.08
2017-11-06T21:55:44.608Z,95842.02
2017-11-06T21:58:12.952Z,95841.09
2017-11-06T22:00:41.307Z,95833.53
2017-11-06T22:03:09.645Z,95834.74
2017-11-06T22:05:38.003Z,95830.36
2017-11-06T22:08:06.371Z,95831.69
2017-11-06T22:10:34.724Z,95827.66
2017-11-06T22:13:03.065Z,95818.95
2017-11-06T22:15:31.415Z,95822.70
2017-11-06T22:17:59.775Z,95818.44
2017-11-06T22:20:28.134Z,95825.17
2017-11-06T22:22:56.487Z,95816.39
2017-11-06T22:25:24.849Z,95822.52
2017-11-06T22:27:53.235Z,95820.11
2017-11-06T22:30:21.578Z,95821.03
2017-11-06T22:32:49.960Z,95825.70
2017-11-06T22:35:18.318Z,95821.56
2017-11-06T22:37:46.659Z,95819.35
2017-11-06T22:40:15.135Z,95818.44
2017-11-06T22:42:43.523Z,95816.06
2017-11-06T22:45:11.970Z,95817.20
2017-11-06T22:47:40.366Z,95820.86
2017-11-06T22:50:08.717Z,95808.02
2017-11-06T22:52:37.065Z,95800.61
2017-11-06T22:55:05.417Z,95800.41
2017-11-06T22:57:33.773Z,95799.18
2017-11-06T23:00:02.130Z,95791.07
2017-11-06T23:02:30.482Z,95789.36
2017-11-06T23:04:58.835Z,95790.26
2017-11-06T23:07:27.208Z,95782.08
2017-11-06T23:09:55.558Z,95785.82
2017-11-06T23:12:23.909Z,95778.03
2017-11-06T23:14:52.268Z,95776.92
2017-11-06T23:17:20.611Z,95773.41
2017-11-06T23:19:48.986Z,95779.41
2017-11-06T23:22:17.331Z,95774.75
2017-11-06T23:24:45.715Z,95763.26
2017-11-06T23:27:14.065Z,95758.78
2017-11-06T23:29:42.419Z,95755.95
2017-11-06T23:32:10.790Z,95750.28
2017-11-06T23:34:39.138Z,95753.80
2017-11-06T23:37:07.488Z,95754.91
2017-11-06T23:39:35.858Z,95750.06
2017-11-06T23:42:04.220Z,95745.09
2017-11-06T23:44:32.586Z,95751.47
2017-11-06T23:47:00.931Z,95751.43
2017-11-06T23:49:29.283Z,95740.63
2017-11-06T23:51:57.640Z,95748.44
2017-11-06T23:54:26.123Z,95748.50
2017-11-06T23:56:54.911Z,95746.97
2017-11-06T23:59:23.261Z,95744.59
